Time;durP1;ratioP1;P1;durP2;ratioP2;P2;SDS_P1;SDS_P2;PMS_P1;PMS_P2;Temp;Humidity;BMP_temperature;BMP_pressure;BME280_temperature;BME280_humidity;BME280_pressure;Samples;Min_cycle;Max_cycle;Signal;HPM_P1;HPM_P2
2022/10/10 00:01:02;;;;;;;8.20;6.22;;;7.80;99.90;;;;;;4976378;28;93207;-32
2022/10/10 00:03:28;;;;;;;10.27;5.97;;;7.80;99.90;;;;;;4976509;28;95212;-29
2022/10/10 00:05:53;;;;;;;14.63;6.95;;;7.90;99.90;;;;;;4975838;28;95113;-30
2022/10/10 00:08:19;;;;;;;9.25;6.43;;;7.80;99.90;;;;;;4976840;28;94428;-32
2022/10/10 00:10:44;;;;;;;7.00;5.97;;;7.90;99.90;;;;;;4975818;28;92614;-30
2022/10/10 00:13:10;;;;;;;8.00;6.40;;;7.90;99.90;;;;;;4976250;28;94649;-33
2022/10/10 00:15:36;;;;;;;7.30;6.63;;;7.90;99.90;;;;;;4976297;28;94383;-32
2022/10/10 00:18:02;;;;;;;9.57;6.05;;;7.90;99.90;;;;;;4970733;28;94227;-32
2022/10/10 00:20:27;;;;;;;8.38;6.43;;;7.80;99.90;;;;;;4976810;28;94374;-30
2022/10/10 00:22:54;;;;;;;6.88;6.28;;;7.80;99.90;;;;;;4975862;28;95743;-28
2022/10/10 00:25:20;;;;;;;8.20;6.32;;;7.80;99.90;;;;;;4980428;28;95509;-33
2022/10/10 00:27:46;;;;;;;13.65;6.82;;;7.80;99.90;;;;;;4979575;28;92884;-29
2022/10/10 00:30:11;;;;;;;7.65;6.38;;;7.80;99.90;;;;;;4979443;28;94706;-33
2022/10/10 00:32:37;;;;;;;10.88;6.85;;;7.80;99.90;;;;;;4979506;28;94205;-29
2022/10/10 00:35:04;;;;;;;13.25;7.25;;;7.70;99.90;;;;;;4978862;28;94809;-30
2022/10/10 00:37:30;;;;;;;8.27;6.28;;;7.70;99.90;;;;;;4979781;28;92305;-28
2022/10/10 00:39:55;;;;;;;7.43;5.75;;;7.70;99.90;;;;;;4980036;28;93946;-32
2022/10/10 00:42:21;;;;;;;9.18;6.00;;;7.60;99.90;;;;;;4979091;28;94781;-34
2022/10/10 00:45:19;;;;;;;8.05;6.57;;;7.60;99.90;;;;;;4978925;28;94607;-30
2022/10/10 00:47:45;;;;;;;7.32;6.60;;;7.50;99.90;;;;;;4979383;28;94789;-31
2022/10/10 00:50:11;;;;;;;10.43;6.60;;;7.40;99.90;;;;;;4978968;28;92722;-30
2022/10/10 00:52:37;;;;;;;7.80;6.28;;;7.40;99.90;;;;;;5013316;22;94749;-29
2022/10/10 00:55:03;;;;;;;12.45;6.88;;;7.40;99.90;;;;;;4978827;28;94542;-31
2022/10/10 00:57:29;;;;;;;7.25;6.18;;;7.30;99.90;;;;;;4979088;28;92221;-29
2022/10/10 00:59:55;;;;;;;8.18;6.55;;;7.20;99.90;;;;;;4979053;28;93699;-28
2022/10/10 01:02:21;;;;;;;6.82;5.38;;;7.20;99.90;;;;;;4978799;28;94785;-30
2022/10/10 01:04:46;;;;;;;6.80;6.15;;;7.10;99.90;;;;;;4978754;28;94453;-32
2022/10/10 01:07:17;;;;;;;6.25;5.75;;;7.10;99.90;;;;;;4979351;28;94378;-30
2022/10/10 01:09:44;;;;;;;7.40;6.35;;;7.10;99.90;;;;;;4979407;28;93312;-31
2022/10/10 01:12:29;;;;;;;6.85;6.18;;;7.10;99.90;;;;;;4977987;28;96413;-32
2022/10/10 01:15:20;;;;;;;8.38;5.60;;;7.00;99.90;;;;;;4978556;28;95606;-32
2022/10/10 01:18:04;;;;;;;7.35;6.32;;;7.00;99.90;;;;;;4979230;28;94494;-30
2022/10/10 01:20:51;;;;;;;9.73;6.82;;;7.00;99.90;;;;;;4978995;28;92186;-30
2022/10/10 01:23:39;;;;;;;8.23;7.05;;;7.00;99.90;;;;;;4978887;28;94589;-29
2022/10/10 01:26:47;;;;;;;9.50;7.27;;;7.10;99.90;;;;;;4979358;28;94812;-30
2022/10/10 01:29:24;;;;;;;10.48;6.18;;;7.10;99.90;;;;;;4979343;28;95059;-29
2022/10/10 01:31:55;;;;;;;6.32;5.72;;;7.10;99.90;;;;;;4978438;28;94332;-28
2022/10/10 01:34:31;;;;;;;7.30;6.60;;;7.10;99.90;;;;;;4978008;28;94751;-31
2022/10/10 01:37:13;;;;;;;7.07;6.38;;;7.10;99.90;;;;;;4977666;28;94426;-32
2022/10/10 01:39:53;;;;;;;11.10;6.72;;;7.10;99.90;;;;;;4978311;28;93501;-31
2022/10/10 01:42:29;;;;;;;10.80;6.95;;;7.10;99.90;;;;;;4978874;28;92165;-30
2022/10/10 01:44:55;;;;;;;7.03;6.32;;;7.10;99.90;;;;;;4977992;28;95194;-30
2022/10/10 01:47:21;;;;;;;7.72;6.95;;;7.10;99.90;;;;;;4978210;28;94212;-30
2022/10/10 01:49:51;;;;;;;10.65;6.70;;;7.10;99.90;;;;;;4978107;28;93755;-31
2022/10/10 01:52:19;;;;;;;11.32;7.45;;;7.10;99.90;;;;;;4978534;28;94724;-30
2022/10/10 01:54:58;;;;;;;;;;;7.10;99.90;;;;;;4978374;28;94850;-29
2022/10/10 01:57:43;;;;;;;10.63;7.43;;;7.10;99.90;;;;;;4979831;28;94523;-29
2022/10/10 02:00:12;;;;;;;7.78;6.65;;;7.00;99.90;;;;;;4978359;28;93462;-30
2022/10/10 02:02:45;;;;;;;8.13;6.47;;;7.00;99.90;;;;;;4977934;28;93519;-29
2022/10/10 02:05:22;;;;;;;7.07;5.95;;;7.00;99.90;;;;;;4976997;28;95733;-31
2022/10/10 02:08:11;;;;;;;9.87;6.20;;;7.00;99.90;;;;;;4977138;28;94988;-31
2022/10/10 02:10:54;;;;;;;7.18;6.47;;;6.90;99.90;;;;;;4977945;28;93368;-32
2022/10/10 02:13:22;;;;;;;9.43;5.88;;;6.90;99.90;;;;;;4978306;28;92722;-29
2022/10/10 02:15:52;;;;;;;9.00;6.40;;;6.80;99.90;;;;;;4977899;28;95152;-28
2022/10/10 02:18:21;;;;;;;7.43;6.30;;;6.80;99.90;;;;;;4977802;28;94080;-31
2022/10/10 02:20:48;;;;;;;7.70;6.97;;;6.80;99.90;;;;;;4977911;28;94999;-31
2022/10/10 02:23:16;;;;;;;7.83;7.00;;;6.80;99.90;;;;;;4978216;28;91828;-29
2022/10/10 02:25:45;;;;;;;11.20;6.47;;;6.70;99.90;;;;;;4977326;28;94243;-30
2022/10/10 02:28:16;;;;;;;;;;;6.80;99.90;;;;;;4964063;28;95299;-30
2022/10/10 02:30:45;;;;;;;7.28;6.40;;;6.80;99.90;;;;;;4978097;28;93666;-32
2022/10/10 02:33:14;;;;;;;7.82;7.15;;;6.90;99.90;;;;;;4976925;28;93505;-31
2022/10/10 02:35:44;;;;;;;6.80;6.20;;;6.90;99.90;;;;;;4977126;28;94845;-30
2022/10/10 02:38:14;;;;;;;10.15;7.35;;;7.00;99.90;;;;;;4977241;28;93554;-32
2022/10/10 02:40:41;;;;;;;15.82;7.40;;;7.00;99.90;;;;;;4976993;28;93691;-34
2022/10/10 02:43:09;;;;;;;9.60;7.40;;;7.20;99.90;;;;;;4976728;28;94901;-30
2022/10/10 02:45:36;;;;;;;6.53;5.90;;;7.20;99.90;;;;;;4977423;28;95328;-31
2022/10/10 02:48:03;;;;;;;6.82;6.15;;;7.40;99.90;;;;;;4976753;28;95931;-29
2022/10/10 02:50:30;;;;;;;9.20;7.45;;;7.50;99.90;;;;;;4977641;28;93195;-30
2022/10/10 02:52:56;;;;;;;7.82;6.97;;;7.60;99.90;;;;;;4976796;28;94454;-32
2022/10/10 02:55:22;;;;;;;9.93;6.68;;;7.70;99.90;;;;;;4977097;28;95432;-30
2022/10/10 02:57:48;;;;;;;9.85;6.50;;;7.80;99.90;;;;;;4976705;28;95587;-32
2022/10/10 03:00:14;;;;;;;7.70;6.13;;;7.90;99.90;;;;;;4977690;28;93939;-31
2022/10/10 03:02:40;;;;;;;8.52;7.28;;;7.90;99.90;;;;;;4976518;28;92115;-31
2022/10/10 03:05:06;;;;;;;10.30;7.20;;;8.00;99.90;;;;;;4976468;28;94009;-31
2022/10/10 03:07:31;;;;;;;6.88;5.80;;;8.00;99.90;;;;;;4977212;28;94769;-29
2022/10/10 03:09:57;;;;;;;8.07;6.68;;;8.00;99.90;;;;;;4977002;28;94202;-31
2022/10/10 03:12:23;;;;;;;8.65;7.68;;;8.00;99.90;;;;;;4977758;28;93584;-28
2022/10/10 03:14:48;;;;;;;9.85;7.05;;;8.00;99.90;;;;;;4976540;28;94697;-30
2022/10/10 03:17:14;;;;;;;14.48;7.35;;;8.00;99.90;;;;;;4976703;28;93362;-33
2022/10/10 03:19:40;;;;;;;6.95;6.32;;;8.00;99.90;;;;;;4976218;28;94634;-32
2022/10/10 03:22:05;;;;;;;10.27;7.40;;;8.00;99.90;;;;;;4977192;28;94021;-33
2022/10/10 03:24:31;;;;;;;12.73;7.47;;;7.90;99.90;;;;;;4976723;28;92729;-29
2022/10/10 03:26:56;;;;;;;8.43;7.45;;;7.90;99.90;;;;;;4976407;28;94494;-29
2022/10/10 03:29:22;;;;;;;8.55;7.22;;;7.90;99.90;;;;;;4977221;28;94482;-29
2022/10/10 03:31:48;;;;;;;8.55;7.28;;;7.90;99.90;;;;;;4976358;28;94644;-31
2022/10/10 03:34:13;;;;;;;12.77;7.30;;;7.90;99.90;;;;;;4976720;28;94682;-33
2022/10/10 03:36:39;;;;;;;7.40;6.63;;;7.80;99.90;;;;;;4977327;28;93927;-32
2022/10/10 03:39:06;;;;;;;7.93;7.15;;;7.80;99.90;;;;;;4976979;28;94235;-32
2022/10/10 03:41:32;;;;;;;8.68;6.40;;;7.80;99.90;;;;;;4976774;28;92347;-30
2022/10/10 03:43:58;;;;;;;14.30;7.28;;;7.80;99.90;;;;;;4975222;28;95461;-29
2022/10/10 03:46:23;;;;;;;7.55;6.85;;;7.70;99.90;;;;;;4958573;28;96959;-29
2022/10/10 03:48:49;;;;;;;7.55;6.60;;;7.70;99.90;;;;;;4976795;28;93381;-29
2022/10/10 03:51:14;;;;;;;10.70;7.20;;;7.70;99.90;;;;;;4976172;28;93471;-32
2022/10/10 03:53:40;;;;;;;9.63;7.05;;;7.70;99.90;;;;;;4975716;28;94613;-30
2022/10/10 03:56:06;;;;;;;9.82;7.60;;;7.70;99.90;;;;;;4976318;28;94276;-31
2022/10/10 03:58:32;;;;;;;10.95;6.45;;;7.60;99.90;;;;;;4978847;28;93057;-29
2022/10/10 04:00:59;;;;;;;10.15;6.75;;;7.60;99.90;;;;;;4980724;28;93739;-31
2022/10/10 04:03:25;;;;;;;8.20;7.28;;;7.50;99.90;;;;;;4979688;28;94178;-28
2022/10/10 04:05:51;;;;;;;8.25;6.57;;;7.50;99.90;;;;;;4979462;28;94483;-30
2022/10/10 04:08:16;;;;;;;10.43;7.05;;;7.50;99.90;;;;;;4979918;28;93416;-30
2022/10/10 04:10:43;;;;;;;7.10;6.50;;;7.40;99.90;;;;;;4979700;28;93838;-31
2022/10/10 04:13:08;;;;;;;7.75;6.95;;;7.40;99.90;;;;;;4979903;28;95006;-30
2022/10/10 04:15:34;;;;;;;13.55;7.07;;;7.40;99.90;;;;;;4979480;28;94603;-30
2022/10/10 04:17:59;;;;;;;9.63;7.53;;;7.30;99.90;;;;;;4980212;28;93640;-32
2022/10/10 04:20:25;;;;;;;9.43;7.22;;;7.30;99.90;;;;;;4979835;28;93166;-32
2022/10/10 04:22:51;;;;;;;8.27;7.47;;;7.30;99.90;;;;;;4979550;28;94436;-31
2022/10/10 04:25:17;;;;;;;9.43;6.57;;;7.30;99.90;;;;;;4979760;28;96267;-30
2022/10/10 04:27:42;;;;;;;8.30;6.43;;;7.20;99.90;;;;;;4979036;28;93119;-31
2022/10/10 04:30:09;;;;;;;9.85;6.82;;;7.20;99.90;;;;;;4979532;28;92960;-30
2022/10/10 04:32:35;;;;;;;7.00;5.85;;;7.20;99.90;;;;;;4978660;28;96093;-31
2022/10/10 04:35:01;;;;;;;6.85;6.25;;;7.20;99.90;;;;;;4979038;28;95288;-30
2022/10/10 04:37:27;;;;;;;12.32;8.02;;;7.10;99.90;;;;;;4979827;28;92569;-32
2022/10/10 04:39:52;;;;;;;7.85;7.03;;;7.10;99.90;;;;;;4978817;28;94316;-29
2022/10/10 04:42:18;;;;;;;7.75;7.00;;;7.00;99.90;;;;;;4979137;28;94859;-29
2022/10/10 04:44:43;;;;;;;9.43;8.18;;;7.00;99.90;;;;;;4979065;28;94816;-29
2022/10/10 04:47:09;;;;;;;9.02;7.90;;;7.00;99.90;;;;;;4979785;28;93451;-32
2022/10/10 04:49:35;;;;;;;12.55;7.25;;;7.00;99.90;;;;;;4979447;28;93317;-32
2022/10/10 04:52:00;;;;;;;8.70;6.72;;;7.00;99.90;;;;;;4978759;28;94460;-33
2022/10/10 04:54:26;;;;;;;10.60;8.35;;;7.00;99.90;;;;;;4979105;28;95076;-31
2022/10/10 04:56:51;;;;;;;9.20;7.38;;;7.00;99.90;;;;;;4978544;28;95366;-30
2022/10/10 04:59:17;;;;;;;10.57;8.45;;;6.90;99.90;;;;;;4979148;28;92718;-30
2022/10/10 05:01:43;;;;;;;8.88;7.30;;;6.90;99.90;;;;;;4978496;28;94623;-30
2022/10/10 05:04:08;;;;;;;10.35;7.47;;;6.90;99.90;;;;;;4978574;28;93569;-30
2022/10/10 05:06:34;;;;;;;8.48;7.30;;;6.90;99.90;;;;;;4979573;28;94534;-31
2022/10/10 05:08:59;;;;;;;9.13;8.23;;;6.90;99.90;;;;;;4977270;28;94395;-33
2022/10/10 05:11:25;;;;;;;17.08;8.20;;;6.90;99.90;;;;;;4977377;28;94772;-28
2022/10/10 05:13:51;;;;;;;10.05;8.00;;;6.90;99.90;;;;;;4977517;28;94436;-30
2022/10/10 05:16:17;;;;;;;10.15;8.73;;;6.90;99.90;;;;;;4978942;28;92436;-29
2022/10/10 05:18:42;;;;;;;7.85;6.97;;;7.00;99.90;;;;;;4977480;28;93044;-32
2022/10/10 05:21:10;;;;;;;9.60;8.38;;;7.00;99.90;;;;;;4978249;28;95586;-32
2022/10/10 05:23:37;;;;;;;9.55;8.63;;;7.00;99.90;;;;;;4978662;28;95960;-30
2022/10/10 05:26:03;;;;;;;9.65;8.20;;;7.00;99.90;;;;;;4978182;28;93132;-31
2022/10/10 05:28:29;;;;;;;8.10;7.40;;;7.00;99.90;;;;;;4977972;28;93271;-30
2022/10/10 05:30:55;;;;;;;12.63;8.98;;;7.00;99.90;;;;;;4978507;28;95075;-31
2022/10/10 05:33:20;;;;;;;9.43;8.63;;;7.00;99.90;;;;;;4977903;28;94630;-32
2022/10/10 05:35:46;;;;;;;13.02;8.43;;;7.00;99.90;;;;;;4978496;28;92303;-32
2022/10/10 05:38:11;;;;;;;10.07;8.52;;;7.00;99.90;;;;;;4978631;28;91795;-29
2022/10/10 05:40:40;;;;;;;11.55;8.50;;;7.00;99.90;;;;;;4977915;28;95128;-29
2022/10/10 05:43:06;;;;;;;9.63;8.43;;;7.00;99.90;;;;;;4977798;28;94303;-33
2022/10/10 05:45:32;;;;;;;11.13;8.73;;;7.00;99.90;;;;;;4978344;28;95166;-30
2022/10/10 05:47:58;;;;;;;11.73;8.70;;;7.00;99.90;;;;;;4976791;28;93273;-29
2022/10/10 05:50:34;;;;;;;10.68;9.50;;;7.00;99.90;;;;;;4977013;28;94267;-30
2022/10/10 05:53:00;;;;;;;10.88;8.40;;;7.10;99.90;;;;;;4976456;28;94453;-30
2022/10/10 05:55:26;;;;;;;9.27;7.72;;;7.10;99.90;;;;;;4959438;28;94783;-32
2022/10/10 05:57:52;;;;;;;10.00;8.85;;;7.10;99.90;;;;;;4978092;28;93414;-28
2022/10/10 06:00:18;;;;;;;10.43;8.10;;;7.20;99.90;;;;;;4977556;28;94603;-30
2022/10/10 06:02:43;;;;;;;9.05;7.72;;;7.20;99.90;;;;;;4967055;28;94366;-30
2022/10/10 06:05:09;;;;;;;8.77;7.82;;;7.20;99.90;;;;;;4975280;28;92890;-31
2022/10/10 06:07:35;;;;;;;11.25;8.82;;;7.20;99.90;;;;;;4975661;28;93852;-30
2022/10/10 06:10:01;;;;;;;12.60;7.60;;;7.30;99.90;;;;;;4975600;28;95557;-30
2022/10/10 06:12:27;;;;;;;9.88;8.05;;;7.30;99.90;;;;;;4975419;28;95454;-31
2022/10/10 06:14:52;;;;;;;9.75;8.23;;;7.30;99.90;;;;;;4975811;28;94622;-30
2022/10/10 06:17:18;;;;;;;9.80;8.05;;;7.30;99.90;;;;;;4975380;28;94314;-29
2022/10/10 06:19:43;;;;;;;9.60;8.63;;;7.30;99.90;;;;;;4975702;28;93662;-33
2022/10/10 06:22:10;;;;;;;9.27;7.55;;;7.30;99.90;;;;;;4975569;28;94483;-32
2022/10/10 06:24:35;;;;;;;12.60;8.35;;;7.30;99.90;;;;;;4975970;28;92070;-31
2022/10/10 06:27:01;;;;;;;9.68;7.70;;;7.30;99.90;;;;;;4976197;28;91384;-30
2022/10/10 06:29:26;;;;;;;8.95;6.97;;;7.40;99.90;;;;;;4975032;28;94742;-31
2022/10/10 06:31:52;;;;;;;9.02;7.63;;;7.40;99.90;;;;;;4975133;28;94406;-31
2022/10/10 06:34:18;;;;;;;10.35;7.38;;;7.50;99.90;;;;;;4974965;28;93104;-30
2022/10/10 06:36:43;;;;;;;8.85;7.82;;;7.60;99.90;;;;;;4976085;28;94584;-28
2022/10/10 06:39:09;;;;;;;8.55;7.65;;;7.70;99.90;;;;;;4975298;28;94839;-28
2022/10/10 06:41:34;;;;;;;19.30;8.10;;;7.80;99.90;;;;;;4974810;28;94508;-31
2022/10/10 06:44:00;;;;;;;10.80;8.60;;;7.90;99.90;;;;;;4975945;28;93415;-29
2022/10/10 06:46:26;;;;;;;10.77;9.25;;;7.90;99.90;;;;;;4974417;28;92131;-31
2022/10/10 06:48:51;;;;;;;8.23;7.22;;;8.00;99.90;;;;;;4975529;28;95270;-29
2022/10/10 06:51:17;;;;;;;13.50;7.90;;;8.00;99.90;;;;;;4975592;28;95049;-30
2022/10/10 06:53:44;;;;;;;11.02;8.05;;;8.10;99.90;;;;;;4974206;28;93416;-34
2022/10/10 06:56:16;;;;;;;81.50;14.20;;;8.20;99.90;;;;;;4975088;28;94175;-28
2022/10/10 06:58:43;;;;;;;14.80;9.13;;;8.20;99.90;;;;;;4956411;28;95090;-29
2022/10/10 07:01:10;;;;;;;12.75;10.65;;;8.30;99.90;;;;;;4975613;28;96060;-29
2022/10/10 07:03:36;;;;;;;13.02;9.95;;;8.40;99.90;;;;;;4974139;28;93160;-31
2022/10/10 07:06:02;;;;;;;63.30;17.02;;;8.50;99.90;;;;;;4974496;28;94312;-29
2022/10/10 07:08:28;;;;;;;14.77;9.82;;;8.60;99.90;;;;;;4974978;28;94310;-30
2022/10/10 07:10:54;;;;;;;11.63;9.27;;;8.60;99.90;;;;;;4974394;28;95099;-31
2022/10/10 07:13:20;;;;;;;11.85;9.93;;;8.70;99.90;;;;;;4975361;28;94658;-34
2022/10/10 07:15:46;;;;;;;12.13;9.50;;;8.80;99.90;;;;;;4975079;28;92612;-32
2022/10/10 07:18:12;;;;;;;10.43;8.75;;;8.90;99.90;;;;;;4974319;28;94785;-30
2022/10/10 07:20:39;;;;;;;10.80;9.15;;;9.00;99.90;;;;;;4974892;28;94466;-32
2022/10/10 07:23:05;;;;;;;10.77;8.95;;;9.10;99.90;;;;;;4975196;28;95322;-31
2022/10/10 07:25:30;;;;;;;10.95;9.63;;;9.30;99.90;;;;;;4974646;28;94869;-33
2022/10/10 07:27:57;;;;;;;14.90;10.35;;;9.40;99.90;;;;;;4974370;28;94317;-29
2022/10/10 07:30:23;;;;;;;12.75;9.90;;;9.60;99.90;;;;;;4973330;28;95025;-34
2022/10/10 07:32:51;;;;;;;18.85;11.40;;;9.70;99.90;;;;;;4973906;28;93752;-30
2022/10/10 07:35:16;;;;;;;10.23;9.30;;;9.70;99.90;;;;;;4973985;28;95401;-30
2022/10/10 07:37:42;;;;;;;11.27;9.25;;;9.80;99.90;;;;;;4973754;28;94729;-31
2022/10/10 07:40:08;;;;;;;14.75;10.10;;;9.90;99.90;;;;;;4974822;28;94997;-30
2022/10/10 07:42:34;;;;;;;14.05;10.60;;;9.90;99.90;;;;;;4973623;28;94203;-30
2022/10/10 07:45:00;;;;;;;10.05;8.93;;;9.90;99.90;;;;;;4973400;28;92616;-31
2022/10/10 07:47:26;;;;;;;15.35;10.20;;;10.00;99.90;;;;;;4955433;28;95757;-32
2022/10/10 07:49:51;;;;;;;12.07;9.38;;;10.00;99.90;;;;;;4973381;28;95432;-33
2022/10/10 07:52:17;;;;;;;10.90;9.20;;;10.10;99.90;;;;;;4973711;28;92560;-30
2022/10/10 07:54:42;;;;;;;12.00;10.23;;;10.20;99.90;;;;;;4973925;28;93315;-33
2022/10/10 07:57:08;;;;;;;11.02;9.13;;;10.20;99.90;;;;;;4973596;28;95446;-31
2022/10/10 07:59:34;;;;;;;11.20;9.57;;;10.20;99.90;;;;;;4973909;28;94329;-29
2022/10/10 08:01:59;;;;;;;13.35;9.48;;;10.30;99.90;;;;;;4973823;28;92088;-30
2022/10/10 08:04:25;;;;;;;8.73;7.78;;;10.30;99.90;;;;;;4975087;28;91356;-32
2022/10/10 08:06:50;;;;;;;12.25;9.85;;;10.30;99.90;;;;;;4973593;28;94958;-33
2022/10/10 08:09:16;;;;;;;16.27;9.85;;;10.20;99.90;;;;;;4974429;28;94150;-31
2022/10/10 08:11:42;;;;;;;12.38;8.75;;;10.30;99.90;;;;;;4973854;28;94672;-30
2022/10/10 08:14:08;;;;;;;14.27;9.82;;;10.40;99.90;;;;;;4974089;28;94903;-31
2022/10/10 08:16:33;;;;;;;12.82;9.38;;;10.50;99.90;;;;;;4974753;28;94680;-32
2022/10/10 08:18:59;;;;;;;10.57;8.30;;;10.60;99.90;;;;;;4973205;28;94774;-31
2022/10/10 08:21:25;;;;;;;11.23;8.85;;;10.70;99.90;;;;;;4974987;28;94247;-33
2022/10/10 08:23:50;;;;;;;15.27;7.95;;;10.90;99.90;;;;;;4973623;28;93898;-30
2022/10/10 08:26:17;;;;;;;12.65;9.65;;;11.00;99.90;;;;;;4974756;28;94885;-33
2022/10/10 08:28:43;;;;;;;12.30;9.27;;;11.10;99.90;;;;;;4974692;28;93043;-31
2022/10/10 08:31:12;;;;;;;11.88;9.77;;;11.20;99.90;;;;;;4974097;28;94496;-30
2022/10/10 08:33:38;;;;;;;10.00;9.02;;;11.30;99.90;;;;;;4973538;28;93124;-32
2022/10/10 08:36:07;;;;;;;15.80;9.82;;;11.40;99.90;;;;;;4973233;28;96790;-32
2022/10/10 08:38:33;;;;;;;16.73;9.48;;;11.50;99.90;;;;;;4974360;28;94400;-30
2022/10/10 08:41:05;;;;;;;12.50;9.00;;;11.60;99.90;;;;;;4974060;28;92891;-33
2022/10/10 08:43:53;;;;;;;13.57;10.00;;;11.80;99.90;;;;;;4973864;28;94125;-32
2022/10/10 08:46:25;;;;;;;;;;;11.80;99.90;;;;;;4976506;28;95567;-32
2022/10/10 08:48:54;;;;;;;10.15;9.07;;;11.90;99.90;;;;;;4978671;28;94226;-33
2022/10/10 08:51:28;;;;;;;14.35;9.68;;;12.00;99.90;;;;;;4977480;28;92159;-31
2022/10/10 08:53:57;;;;;;;9.23;8.15;;;12.10;99.90;;;;;;4976719;28;94106;-32
2022/10/10 08:56:29;;;;;;;12.13;9.18;;;12.10;99.90;;;;;;4976200;28;95426;-30
2022/10/10 08:59:03;;;;;;;14.27;8.65;;;12.10;99.90;;;;;;4976986;28;95806;-31
2022/10/10 09:01:37;;;;;;;15.38;10.45;;;12.10;99.90;;;;;;4959073;28;95652;-34
2022/10/10 09:04:06;;;;;;;11.35;9.65;;;12.10;99.90;;;;;;4975979;28;94024;-31
2022/10/10 09:06:39;;;;;;;16.25;8.68;;;12.10;99.90;;;;;;4976038;28;94787;-33
2022/10/10 09:09:30;;;;;;;9.93;8.73;;;12.00;99.90;;;;;;4977009;28;94906;-32
2022/10/10 09:12:26;;;;;;;15.57;10.38;;;12.10;99.90;;;;;;4976998;28;95075;-34
2022/10/10 09:15:19;;;;;;;9.43;8.55;;;12.10;99.90;;;;;;4976416;28;94678;-31
2022/10/10 09:18:15;;;;;;;10.85;9.57;;;12.10;99.90;;;;;;4976356;28;95164;-29
2022/10/10 09:20:59;;;;;;;10.85;9.85;;;12.10;99.90;;;;;;4976053;28;94661;-34
2022/10/10 09:23:32;;;;;;;12.77;9.48;;;12.10;99.90;;;;;;4977063;28;92240;-32
2022/10/10 09:26:05;;;;;;;10.18;9.00;;;12.20;99.90;;;;;;4976680;28;94372;-30
2022/10/10 09:28:37;;;;;;;12.32;8.90;;;12.30;99.90;;;;;;4975678;28;97066;-33
2022/10/10 09:31:10;;;;;;;12.45;9.40;;;12.30;99.90;;;;;;4975769;28;95449;-31
2022/10/10 09:33:40;;;;;;;12.27;9.77;;;12.30;99.90;;;;;;4976763;28;94141;-32
2022/10/10 09:36:13;;;;;;;12.50;8.60;;;12.30;99.90;;;;;;4976189;28;94715;-33
2022/10/10 09:38:45;;;;;;;14.82;8.95;;;12.40;99.90;;;;;;4976260;28;93909;-31
2022/10/10 09:41:17;;;;;;;10.95;9.95;;;12.50;99.90;;;;;;4977106;28;94457;-32
2022/10/10 09:43:43;;;;;;;16.83;9.85;;;12.70;99.90;;;;;;4975784;28;92978;-31
2022/10/10 09:46:09;;;;;;;13.20;9.07;;;12.90;99.90;;;;;;4976920;28;93880;-30
2022/10/10 09:48:40;;;;;;;10.98;8.80;;;13.00;99.90;;;;;;4975676;28;94800;-31
2022/10/10 09:51:13;;;;;;;15.98;10.43;;;13.20;99.90;;;;;;4975999;28;94751;-29
2022/10/10 09:53:39;;;;;;;14.80;10.30;;;13.20;99.90;;;;;;4975188;28;94072;-31
2022/10/10 09:56:07;;;;;;;15.85;9.80;;;13.30;99.90;;;;;;4974479;28;93221;-30
2022/10/10 09:58:43;;;;;;;12.63;10.48;;;13.30;99.90;;;;;;4976663;28;94918;-30
2022/10/10 10:01:24;;;;;;;12.30;9.57;;;13.40;99.90;;;;;;4976197;28;94153;-29
2022/10/10 10:04:08;;;;;;;13.15;8.80;;;13.50;99.90;;;;;;4976023;28;93195;-32
2022/10/10 10:06:35;;;;;;;14.63;9.35;;;13.70;99.90;;;;;;4975782;28;92812;-31
2022/10/10 10:09:05;;;;;;;10.38;9.32;;;13.80;99.90;;;;;;4975475;28;93776;-31
2022/10/10 10:11:33;;;;;;;13.93;10.02;;;13.90;99.90;;;;;;4975917;28;94325;-32
2022/10/10 10:14:01;;;;;;;10.23;9.18;;;14.00;99.90;;;;;;4975244;28;93632;-29
2022/10/10 10:16:38;;;;;;;12.57;9.70;;;14.00;99.90;;;;;;4975299;28;92829;-33
2022/10/10 10:19:06;;;;;;;23.17;10.82;;;14.00;99.90;;;;;;4975093;28;95909;-31
2022/10/10 10:21:47;;;;;;;12.98;10.63;;;14.00;99.90;;;;;;4974969;28;96931;-32
2022/10/10 10:24:23;;;;;;;9.95;9.02;;;14.10;99.90;;;;;;4975569;28;94629;-32
2022/10/10 10:26:50;;;;;;;11.77;8.75;;;14.20;99.90;;;;;;4975775;28;93849;-31
2022/10/10 10:29:27;;;;;;;13.20;10.07;;;14.20;99.90;;;;;;4974371;28;93855;-30
2022/10/10 10:32:01;;;;;;;16.02;9.90;;;14.30;99.90;;;;;;4974315;28;94862;-31
2022/10/10 10:35:04;;;;;;;11.55;9.77;;;14.30;99.90;;;;;;4975548;28;94763;-30
2022/10/10 10:38:00;;;;;;;11.45;10.35;;;14.40;99.90;;;;;;4976564;28;93004;-32
2022/10/10 10:40:39;;;;;;;12.02;10.07;;;14.40;99.90;;;;;;4955107;28;94744;-32
2022/10/10 10:43:16;;;;;;;11.20;9.98;;;14.50;99.90;;;;;;4975102;28;93927;-31
2022/10/10 10:46:03;;;;;;;17.88;10.57;;;14.50;99.90;;;;;;4974596;28;95406;-33
2022/10/10 10:48:37;;;;;;;11.73;8.93;;;14.50;99.90;;;;;;4971692;28;93297;-31
2022/10/10 10:51:21;;;;;;;19.30;10.95;;;14.50;99.90;;;;;;4975483;28;94921;-30
2022/10/10 10:54:08;;;;;;;11.07;9.55;;;14.50;99.90;;;;;;4974174;28;94476;-31
2022/10/10 10:56:43;;;;;;;18.00;8.88;;;14.50;99.90;;;;;;4975290;28;92130;-30
2022/10/10 10:59:31;;;;;;;13.65;10.13;;;14.60;99.90;;;;;;4975723;28;92763;-33
2022/10/10 11:02:19;;;;;;;16.20;10.55;;;14.60;99.90;;;;;;4974872;28;94776;-32
2022/10/10 11:05:27;;;;;;;15.63;9.50;;;14.70;99.90;;;;;;4968621;28;95851;-30
2022/10/10 11:08:09;;;;;;;12.18;8.88;;;14.80;99.90;;;;;;4974446;28;94556;-33
2022/10/10 11:10:44;;;;;;;18.33;9.98;;;14.80;99.90;;;;;;4975537;28;94559;-33
2022/10/10 11:13:24;;;;;;;11.73;9.80;;;14.80;99.90;;;;;;4975651;28;95537;-32
2022/10/10 11:16:09;;;;;;;17.52;10.23;;;14.80;99.90;;;;;;4970649;28;95378;-33
2022/10/10 11:18:41;;;;;;;25.58;9.90;;;14.80;99.90;;;;;;4976716;28;94702;-31
2022/10/10 11:21:18;;;;;;;14.82;10.02;;;14.90;99.90;;;;;;4977056;28;94473;-29
2022/10/10 11:23:49;;;;;;;16.40;10.02;;;14.90;99.90;;;;;;4976373;28;94640;-30
2022/10/10 11:26:36;;;;;;;11.10;8.88;;;14.90;99.90;;;;;;4975891;28;95348;-31
2022/10/10 11:29:10;;;;;;;10.15;8.20;;;14.90;99.90;;;;;;4976769;28;93935;-30
2022/10/10 11:31:48;;;;;;;10.65;8.73;;;15.00;99.90;;;;;;4976648;28;91418;-32
2022/10/10 11:34:34;;;;;;;;;;;15.00;99.90;;;;;;4976762;28;94172;-33
2022/10/10 11:37:06;;;;;;;16.17;9.18;;;15.10;99.90;;;;;;4977805;28;93597;-30
2022/10/10 11:39:44;;;;;;;10.90;9.77;;;15.10;99.90;;;;;;4970901;28;94330;-31
2022/10/10 11:42:18;;;;;;;8.88;8.15;;;15.20;99.90;;;;;;4977598;28;92141;-33
2022/10/10 11:44:52;;;;;;;13.73;8.48;;;15.20;99.90;;;;;;4975766;28;96290;-31
2022/10/10 11:47:44;;;;;;;11.10;9.40;;;15.20;99.90;;;;;;4976910;28;94786;-32
2022/10/10 11:50:17;;;;;;;10.38;8.60;;;15.20;99.90;;;;;;4976647;28;94180;-32
2022/10/10 11:52:54;;;;;;;12.50;7.75;;;15.10;99.90;;;;;;4975355;28;92976;-32
2022/10/10 11:55:28;;;;;;;9.10;8.20;;;15.10;99.90;;;;;;4975689;28;95451;-32
2022/10/10 11:57:59;;;;;;;13.68;8.68;;;15.10;99.90;;;;;;4976868;28;93449;-29
2022/10/10 12:00:27;;;;;;;8.93;7.90;;;15.10;99.90;;;;;;4976442;28;94319;-32
2022/10/10 12:02:55;;;;;;;12.35;8.55;;;15.10;99.90;;;;;;4976315;28;93943;-34
2022/10/10 12:05:28;;;;;;;13.18;8.77;;;15.00;99.90;;;;;;4975798;28;95217;-31
2022/10/10 12:07:56;;;;;;;11.48;6.53;;;15.00;99.90;;;;;;4975752;28;95863;-33
2022/10/10 12:10:25;;;;;;;;;;;15.00;99.90;;;;;;4976928;28;94344;-33
2022/10/10 12:12:54;;;;;;;18.27;9.05;;;14.90;99.90;;;;;;4977692;28;92572;-31
2022/10/10 12:15:49;;;;;;;9.75;7.70;;;14.90;99.90;;;;;;4976468;28;94647;-33
2022/10/10 12:18:25;;;;;;;12.98;8.32;;;14.90;99.90;;;;;;4973692;28;94720;-31
2022/10/10 12:21:10;;;;;;;14.27;7.80;;;14.80;99.90;;;;;;4981203;28;92311;-29
2022/10/10 12:23:36;;;;;;;8.25;6.25;;;14.80;99.90;;;;;;4981859;28;94074;-30
2022/10/10 12:26:02;;;;;;;8.73;7.82;;;14.80;99.90;;;;;;4979418;28;94344;-33
2022/10/10 12:28:35;;;;;;;7.60;6.75;;;14.80;99.90;;;;;;4978713;28;94726;-31
2022/10/10 12:31:04;;;;;;;7.82;6.93;;;14.90;99.90;;;;;;4978449;28;94073;-30
2022/10/10 12:33:32;;;;;;;7.05;6.32;;;14.90;99.90;;;;;;4978871;28;94099;-30
2022/10/10 12:36:20;;;;;;;9.90;6.70;;;14.90;99.90;;;;;;4979025;28;94659;-33
2022/10/10 12:39:05;;;;;;;8.95;8.00;;;14.90;99.90;;;;;;4981237;28;94297;-29
2022/10/10 12:41:49;;;;;;;13.82;8.80;;;14.90;99.90;;;;;;4979491;28;92167;-32
2022/10/10 12:44:41;;;;;;;7.70;6.85;;;15.00;99.90;;;;;;4961675;28;94164;-30
2022/10/10 12:47:13;;;;;;;11.05;7.68;;;14.90;99.90;;;;;;4979259;28;95079;-29
2022/10/10 12:49:54;;;;;;;10.07;8.18;;;14.90;99.90;;;;;;4979322;28;94290;-30
2022/10/10 12:52:46;;;;;;;8.85;7.10;;;15.00;99.90;;;;;;4998458;22;94541;31
2022/10/10 12:55:42;;;;;;;8.40;7.35;;;15.00;99.90;;;;;;4918884;28;95544;-30
2022/10/10 12:58:14;;;;;;;8.88;6.75;;;15.00;99.90;;;;;;4919706;28;96016;-31
2022/10/10 13:00:46;;;;;;;11.30;7.57;;;15.00;99.90;;;;;;4920465;28;95549;-33
2022/10/10 13:03:25;;;;;;;8.65;6.55;;;15.00;99.90;;;;;;4921218;28;93735;-34
2022/10/10 13:05:52;;;;;;;8.75;7.85;;;15.00;99.90;;;;;;4920090;28;92692;-31